createdAt,value
2022-11-04T00:00:14.793Z,1.04
2022-11-04T00:01:14.891Z,1.04
2022-11-04T00:02:15.224Z,1.04
2022-11-04T00:03:15.209Z,1.04
2022-11-04T00:04:15.313Z,1.04
2022-11-04T00:05:15.462Z,1.04
2022-11-04T00:06:15.613Z,1.04
2022-11-04T00:07:15.774Z,1.04
2022-11-04T00:08:15.917Z,1.04
2022-11-04T00:09:16.074Z,1.04
2022-11-04T00:10:16.220Z,1.04
2022-11-04T00:11:16.332Z,1.04
2022-11-04T00:12:16.484Z,1.04
2022-11-04T00:13:16.626Z,1.04
2022-11-04T00:14:16.783Z,1.04
2022-11-04T00:15:16.930Z,1.04
2022-11-04T00:16:17.068Z,1.04
2022-11-04T00:17:17.236Z,1.04
2022-11-04T00:18:17.403Z,1.04
2022-11-04T00:19:17.520Z,1.04
2022-11-04T00:20:17.663Z,1.04
2022-11-04T00:21:17.788Z,1.04
2022-11-04T00:22:17.943Z,1.04
2022-11-04T00:23:18.099Z,1.04
2022-11-04T00:24:18.248Z,1.04
2022-11-04T00:25:18.398Z,1.04
2022-11-04T00:26:18.545Z,1.04
2022-11-04T00:27:18.703Z,1.04
2022-11-04T00:28:18.856Z,1.04
2022-11-04T00:29:18.955Z,1.04
2022-11-04T00:30:19.100Z,1.04
2022-11-04T00:31:19.202Z,1.04
2022-11-04T00:32:19.357Z,1.04
2022-11-04T00:33:19.510Z,1.04
2022-11-04T00:34:19.647Z,1.04
2022-11-04T00:35:19.745Z,1.04
2022-11-04T00:36:19.863Z,1.04
2022-11-04T00:37:20.016Z,1.04
2022-11-04T00:38:20.170Z,1.04
2022-11-04T00:39:20.314Z,1.04
2022-11-04T00:40:20.473Z,1.04
2022-11-04T00:41:20.617Z,1.04
2022-11-04T00:42:20.782Z,1.04
2022-11-04T00:43:20.886Z,1.04
2022-11-04T00:44:20.981Z,1.04
2022-11-04T00:45:21.143Z,1.04
2022-11-04T00:46:21.223Z,1.04
2022-11-04T00:47:21.393Z,1.04
2022-11-04T00:48:21.501Z,1.04
2022-11-04T00:49:21.634Z,1.04
2022-11-04T00:50:21.782Z,1.04
2022-11-04T00:51:21.936Z,1.04
2022-11-04T00:52:22.044Z,1.04
2022-11-04T00:53:22.185Z,1.04
2022-11-04T00:54:22.338Z,1.04
2022-11-04T00:55:22.493Z,1.04
2022-11-04T00:56:22.649Z,1.04
2022-11-04T00:57:22.810Z,1.04
2022-11-04T00:58:22.898Z,1.04
2022-11-04T00:59:23.051Z,1.04
2022-11-04T01:00:23.213Z,1.04
2022-11-04T01:01:23.493Z,1.04
2022-11-04T01:02:23.684Z,1.04
2022-11-04T01:03:23.655Z,1.04
2022-11-04T01:04:23.814Z,1.04
2022-11-04T01:05:23.956Z,1.04
2022-11-04T01:06:24.125Z,1.04
2022-11-04T01:07:24.268Z,1.04
2022-11-04T01:08:24.415Z,1.04
2022-11-04T01:09:24.574Z,1.04
2022-11-04T01:10:24.720Z,1.04
2022-11-04T01:11:24.877Z,1.04
2022-11-04T01:12:25.028Z,1.04
2022-11-04T01:13:25.143Z,1.04
2022-11-04T01:14:25.279Z,1.04
2022-11-04T01:15:25.430Z,1.04
2022-11-04T01:16:25.536Z,1.04
2022-11-04T01:17:25.718Z,1.04
2022-11-04T01:18:25.840Z,1.04
2022-11-04T01:19:26.001Z,1.04
2022-11-04T01:20:26.138Z,1.04
2022-11-04T01:21:26.284Z,1.04
2022-11-04T01:22:26.437Z,1.04
2022-11-04T01:23:26.590Z,1.04
2022-11-04T01:24:26.743Z,1.04
2022-11-04T01:25:26.919Z,1.04
2022-11-04T01:26:27.039Z,1.04
2022-11-04T01:27:27.202Z,1.04
2022-11-04T01:28:27.342Z,1.04
2022-11-04T01:29:27.512Z,1.04
2022-11-04T01:30:27.618Z,1.04
2022-11-04T01:31:27.744Z,1.04
2022-11-04T01:32:27.917Z,1.04
2022-11-04T01:33:28.050Z,1.04
2022-11-04T01:34:28.215Z,1.04
2022-11-04T01:35:28.377Z,1.04
2022-11-04T01:36:28.516Z,1.04
2022-11-04T01:37:28.660Z,1.04
2022-11-04T01:38:28.807Z,1.04
2022-11-04T01:39:28.972Z,1.04
2022-11-04T01:40:29.134Z,1.04
2022-11-04T01:41:29.268Z,1.04
2022-11-04T01:42:29.372Z,1.04
2022-11-04T01:43:29.520Z,1.04
2022-11-04T01:44:29.674Z,1.04
2022-11-04T01:45:29.777Z,1.04
2022-11-04T01:46:29.919Z,1.04
2022-11-04T01:47:30.096Z,1.04
2022-11-04T01:48:30.236Z,1.04
2022-11-04T01:49:30.394Z,1.04
2022-11-04T01:50:30.541Z,1.04
2022-11-04T01:51:30.698Z,1.04
2022-11-04T01:52:30.846Z,1.04
2022-11-04T01:53:30.988Z,1.04
2022-11-04T01:54:31.141Z,1.04
2022-11-04T01:55:31.291Z,1.04
2022-11-04T01:56:31.458Z,1.04
2022-11-04T01:57:31.603Z,1.04
2022-11-04T01:58:31.713Z,1.04
2022-11-04T01:59:31.955Z,1.04
2022-11-04T02:00:32.005Z,1.04
2022-11-04T02:01:32.273Z,1.04
2022-11-04T02:02:32.351Z,1.04
2022-11-04T02:03:32.415Z,1.04
2022-11-04T02:04:32.521Z,1.04
2022-11-04T02:05:32.656Z,1.04
2022-11-04T02:06:32.820Z,1.04
2022-11-04T02:07:32.946Z,1.04
2022-11-04T02:08:33.108Z,1.04
2022-11-04T02:09:33.268Z,1.04
2022-11-04T02:10:33.419Z,1.04
2022-11-04T02:11:33.579Z,1.04
2022-11-04T02:12:33.714Z,1.04
2022-11-04T02:13:33.870Z,1.04
2022-11-04T02:14:34.025Z,1.04
2022-11-04T02:15:34.189Z,1.04
2022-11-04T02:16:34.317Z,1.04
2022-11-04T02:17:34.435Z,1.04
2022-11-04T02:18:34.587Z,1.04
2022-11-04T02:19:34.744Z,1.04
2022-11-04T02:20:34.887Z,1.04
2022-11-04T02:21:35.045Z,1.04
2022-11-04T02:22:35.193Z,1.04
2022-11-04T02:23:35.360Z,1.04
2022-11-04T02:24:35.487Z,1.04
2022-11-04T02:25:35.596Z,1.04
2022-11-04T02:26:35.746Z,1.04
2022-11-04T02:27:35.893Z,1.04
2022-11-04T02:28:36.026Z,1.04
2022-11-04T02:29:36.219Z,1.04
2022-11-04T02:30:36.296Z,1.04
2022-11-04T02:31:36.454Z,1.04
2022-11-04T02:32:36.597Z,1.04
2022-11-04T02:33:37.331Z,1.04
2022-11-04T02:34:36.851Z,1.04
2022-11-04T02:35:36.954Z,1.04
2022-11-04T02:36:37.114Z,1.04
2022-11-04T02:37:37.175Z,1.04
2022-11-04T02:38:37.315Z,1.04
2022-11-04T02:39:37.425Z,1.04
2022-11-04T02:40:37.578Z,1.04
2022-11-04T02:41:37.722Z,1.04
2022-11-04T02:42:37.824Z,1.04
2022-11-04T02:43:37.973Z,1.04
2022-11-04T02:44:38.143Z,1.04
2022-11-04T02:45:38.268Z,1.04
2022-11-04T02:46:38.418Z,1.04
2022-11-04T02:47:38.576Z,1.04
2022-11-04T02:48:38.731Z,1.04
2022-11-04T02:49:38.887Z,1.04
2022-11-04T02:50:39.037Z,1.04
2022-11-04T02:51:39.189Z,1.04
2022-11-04T02:52:39.333Z,1.04
2022-11-04T02:53:39.495Z,1.04
2022-11-04T02:54:39.636Z,1.04
2022-11-04T02:55:39.800Z,1.04
2022-11-04T02:56:39.953Z,1.04
2022-11-04T02:57:40.103Z,1.04
2022-11-04T02:58:40.200Z,1.04
2022-11-04T02:59:40.319Z,1.04
2022-11-04T03:00:40.465Z,1.04
2022-11-04T03:01:40.729Z,1.04
2022-11-04T03:02:40.709Z,1.04
2022-11-04T03:03:40.825Z,1.04
2022-11-04T03:04:40.948Z,1.04
2022-11-04T03:05:41.114Z,1.04
2022-11-04T03:06:41.260Z,1.04
2022-11-04T03:07:41.419Z,1.04
2022-11-04T03:08:41.573Z,1.04
2022-11-04T03:09:41.719Z,1.04
2022-11-04T03:10:41.877Z,1.04
2022-11-04T03:11:42.029Z,1.04
2022-11-04T03:12:42.183Z,1.04
2022-11-04T03:13:42.336Z,1.04
2022-11-04T03:14:42.480Z,1.04
2022-11-04T03:15:42.618Z,1.04
2022-11-04T03:16:42.746Z,1.04
2022-11-04T03:17:42.880Z,1.04
2022-11-04T03:18:43.030Z,1.04
2022-11-04T03:19:43.140Z,1.04
2022-11-04T03:20:43.287Z,1.04
2022-11-04T03:21:43.439Z,1.04
2022-11-04T03:22:43.586Z,1.04
2022-11-04T03:23:43.739Z,1.04
2022-11-04T03:24:43.893Z,1.04
2022-11-04T03:25:44.044Z,1.04
2022-11-04T03:26:44.197Z,1.04
2022-11-04T03:27:44.364Z,1.04
2022-11-04T03:28:44.508Z,1.04
2022-11-04T03:29:44.662Z,1.04
2022-11-04T03:30:44.799Z,1.04
2022-11-04T03:31:44.966Z,1.04
2022-11-04T03:32:45.113Z,1.04
2022-11-04T03:33:45.261Z,1.04
2022-11-04T03:34:45.414Z,1.04
2022-11-04T03:35:45.562Z,1.04
2022-11-04T03:36:45.670Z,1.04
2022-11-04T03:37:45.897Z,1.04
2022-11-04T03:38:46.010Z,1.04
2022-11-04T03:39:46.122Z,1.04
2022-11-04T03:40:46.275Z,1.04
2022-11-04T03:41:46.420Z,1.04
2022-11-04T03:42:46.580Z,1.04
2022-11-04T03:43:46.746Z,1.04
2022-11-04T03:44:46.886Z,1.04
2022-11-04T03:45:46.972Z,1.04
2022-11-04T03:46:47.137Z,1.04
2022-11-04T03:47:47.291Z,1.04
2022-11-04T03:48:47.388Z,1.04
2022-11-04T03:49:47.550Z,1.04
2022-11-04T03:50:47.728Z,1.04
2022-11-04T03:51:47.836Z,1.04
2022-11-04T03:52:47.993Z,1.04
2022-11-04T03:53:48.091Z,1.04
2022-11-04T03:54:48.233Z,1.04
2022-11-04T03:55:48.387Z,1.04
2022-11-04T03:56:48.627Z,1.04
2022-11-04T03:57:48.689Z,1.04
2022-11-04T03:58:48.832Z,1.04
2022-11-04T03:59:49.000Z,1.04
2022-11-04T04:00:49.233Z,1.04
2022-11-04T04:01:49.406Z,1.04
2022-11-04T04:02:49.460Z,1.04
2022-11-04T04:03:49.607Z,1.04
2022-11-04T04:04:49.767Z,1.04
2022-11-04T04:05:49.914Z,1.04
2022-11-04T04:06:50.068Z,1.04
2022-11-04T04:07:50.215Z,1.04
2022-11-04T04:08:50.362Z,1.04
2022-11-04T04:09:50.510Z,1.04
2022-11-04T04:10:50.788Z,1.04
2022-11-04T04:11:50.766Z,1.04
2022-11-04T04:12:50.928Z,1.04
2022-11-04T04:13:51.031Z,1.04
2022-11-04T04:14:51.178Z,1.04
2022-11-04T04:15:51.315Z,1.04
2022-11-04T04:16:51.421Z,1.04
2022-11-04T04:17:51.604Z,1.04
2022-11-04T04:18:53.982Z,1.04
2022-11-04T04:19:51.886Z,1.04
2022-11-04T04:20:52.035Z,1.04
2022-11-04T04:21:52.208Z,1.04
2022-11-04T04:22:52.352Z,1.04
2022-11-04T04:23:52.492Z,1.04
2022-11-04T04:24:52.639Z,1.04
2022-11-04T04:25:52.799Z,1.04
2022-11-04T04:26:52.934Z,1.04
2022-11-04T04:27:53.102Z,1.04
2022-11-04T04:28:53.257Z,1.04
2022-11-04T04:29:53.401Z,1.04
2022-11-04T04:30:57.729Z,1.04
2022-11-04T04:31:53.661Z,1.04
2022-11-04T04:32:53.812Z,1.04
2022-11-04T04:33:53.964Z,1.04
2022-11-04T04:34:54.140Z,1.04
2022-11-04T04:35:54.274Z,1.04
2022-11-04T04:36:54.426Z,1.04
2022-11-04T04:37:54.570Z,1.04
2022-11-04T04:38:54.723Z,1.04
2022-11-04T04:39:54.817Z,1.04
2022-11-04T04:40:55.005Z,1.04
2022-11-04T04:41:55.117Z,1.04
2022-11-04T04:42:55.279Z,1.04
2022-11-04T04:43:55.428Z,1.04
2022-11-04T04:44:55.578Z,1.04
2022-11-04T04:45:55.714Z,1.04
2022-11-04T04:46:55.877Z,1.04
2022-11-04T04:47:56.036Z,1.04
2022-11-04T04:48:56.191Z,1.04
2022-11-04T04:49:56.288Z,1.04
2022-11-04T04:50:56.439Z,1.04
2022-11-04T04:51:56.587Z,1.04
2022-11-04T04:52:56.699Z,1.04
2022-11-04T04:53:56.798Z,1.04
2022-11-04T04:54:56.903Z,1.04
2022-11-04T04:55:57.045Z,1.04
2022-11-04T04:56:57.195Z,1.04
2022-11-04T04:57:57.355Z,1.04
2022-11-04T04:58:57.499Z,1.04
2022-11-04T04:59:57.604Z,1.04
2022-11-04T05:00:57.808Z,1.04
2022-11-04T05:01:57.974Z,1.04
2022-11-04T05:02:57.953Z,1.04
2022-11-04T05:03:58.118Z,1.04
2022-11-04T05:04:58.283Z,1.04
2022-11-04T05:05:58.783Z,1.04
2022-11-04T05:06:58.567Z,1.04
2022-11-04T05:07:58.717Z,1.04
2022-11-04T05:08:58.885Z,1.04
2022-11-04T05:09:59.031Z,1.04
2022-11-04T05:10:59.158Z,1.04
2022-11-04T05:11:59.328Z,1.04
2022-11-04T05:12:59.435Z,1.04
2022-11-04T05:13:59.528Z,1.04
2022-11-04T05:14:59.632Z,1.04
2022-11-04T05:15:59.722Z,1.04
2022-11-04T05:16:59.881Z,1.04
2022-11-04T05:18:00.050Z,1.04
2022-11-04T05:19:00.187Z,1.04
2022-11-04T05:20:00.346Z,1.04
2022-11-04T05:21:00.484Z,1.04
2022-11-04T05:22:00.652Z,1.04
2022-11-04T05:23:00.781Z,1.04
2022-11-04T05:24:00.955Z,1.04
2022-11-04T05:25:01.099Z,1.04
2022-11-04T05:26:01.256Z,1.04
2022-11-04T05:27:01.408Z,1.04
2022-11-04T05:28:01.538Z,1.04
2022-11-04T05:29:01.742Z,1.04
2022-11-04T05:30:01.853Z,1.04
2022-11-04T05:31:01.998Z,1.04
2022-11-04T05:32:02.097Z,1.04
2022-11-04T05:33:03.681Z,2
2022-11-04T05:34:02.357Z,2
2022-11-04T05:35:02.464Z,2
2022-11-04T05:36:02.620Z,2
2022-11-04T05:37:02.761Z,2
2022-11-04T05:38:02.920Z,3.04
2022-11-04T05:39:03.072Z,3.04
2022-11-04T05:40:03.210Z,4
2022-11-04T05:41:03.311Z,5.04
2022-11-04T05:42:03.466Z,5.04
2022-11-04T05:43:03.614Z,6
2022-11-04T05:44:03.723Z,7.04
2022-11-04T05:45:03.872Z,9.04
2022-11-04T05:46:04.020Z,11.04
2022-11-04T05:47:04.170Z,13.04
2022-11-04T05:48:04.338Z,15.04
2022-11-04T05:49:04.453Z,17.04
2022-11-04T05:50:04.573Z,18
2022-11-04T05:51:04.736Z,21.04
2022-11-04T05:52:04.893Z,24
2022-11-04T05:53:05.040Z,26
2022-11-04T05:54:05.204Z,29.04
2022-11-04T05:55:05.350Z,31.04
2022-11-04T05:56:05.486Z,33.04
2022-11-04T05:57:05.606Z,36
2022-11-04T05:58:05.964Z,39.04
2022-11-04T05:59:05.911Z,43.04
2022-11-04T06:00:06.011Z,46
2022-11-04T06:01:06.157Z,50
2022-11-04T06:02:06.394Z,53.04
2022-11-04T06:03:07.573Z,57.04
2022-11-04T06:04:06.568Z,61.04
2022-11-04T06:05:06.722Z,67.04
2022-11-04T06:06:06.811Z,75.04
2022-11-04T06:07:06.971Z,80
2022-11-04T06:08:07.433Z,86
2022-11-04T06:09:07.211Z,93.04
2022-11-04T06:10:07.362Z,98
2022-11-04T06:11:07.512Z,102
2022-11-04T06:12:07.612Z,106
2022-11-04T06:13:07.761Z,111.04
2022-11-04T06:14:07.876Z,113.04
2022-11-04T06:15:08.026Z,115.04
2022-11-04T06:16:08.121Z,118
2022-11-04T06:17:08.348Z,120
2022-11-04T06:18:08.551Z,123.04
2022-11-04T06:19:13.383Z,125.04
2022-11-04T06:20:08.727Z,129.04
2022-11-04T06:21:08.891Z,132
2022-11-04T06:22:09.087Z,137.04
2022-11-04T06:23:09.179Z,142
2022-11-04T06:24:09.343Z,148
2022-11-04T06:25:09.493Z,152
2022-11-04T06:26:09.592Z,157.04
2022-11-04T06:27:09.744Z,162
2022-11-04T06:28:10.259Z,169.12
2022-11-04T06:29:10.051Z,180
2022-11-04T06:30:10.204Z,193.12
2022-11-04T06:31:10.341Z,207.04
2022-11-04T06:32:10.526Z,226.08
2022-11-04T06:33:10.673Z,242.08
2022-11-04T06:34:10.814Z,262.08
2022-11-04T06:35:10.974Z,293.12
2022-11-04T06:36:11.141Z,325.12
2022-11-04T06:37:11.227Z,387.2
2022-11-04T06:38:11.623Z,457.28
2022-11-04T06:39:11.528Z,550.08
2022-11-04T06:40:11.680Z,626.24
2022-11-04T06:41:11.830Z,699.52
2022-11-04T06:42:11.918Z,767.36
2022-11-04T06:43:12.271Z,854.4
2022-11-04T06:44:12.230Z,925.44
2022-11-04T06:45:12.376Z,1005.44
2022-11-04T06:46:12.665Z,1064.32
2022-11-04T06:47:12.849Z,1109.12
2022-11-04T06:48:12.935Z,1148.16
2022-11-04T06:49:13.040Z,1174.4
2022-11-04T06:50:13.188Z,1210.24
2022-11-04T06:51:13.328Z,1242.24
2022-11-04T06:52:13.494Z,1284.48
2022-11-04T06:53:13.649Z,1413.12
2022-11-04T06:54:13.809Z,1487.36
2022-11-04T06:55:13.954Z,1629.44
2022-11-04T06:56:14.090Z,1792
2022-11-04T06:57:14.214Z,1967.36
2022-11-04T06:58:14.317Z,2068.48
2022-11-04T06:59:14.413Z,2186.24
2022-11-04T07:00:14.567Z,2260.48
2022-11-04T07:01:17.320Z,2348.8
2022-11-04T07:02:14.905Z,2387.2
2022-11-04T07:03:14.922Z,2393.6
2022-11-04T07:04:15.000Z,2314.24
2022-11-04T07:05:15.159Z,2168.32
2022-11-04T07:06:15.267Z,2105.6
2022-11-04T07:07:15.365Z,2081.28
2022-11-04T07:08:15.478Z,2044.16
2022-11-04T07:09:15.620Z,1921.28
2022-11-04T07:10:15.768Z,1802.24
2022-11-04T07:11:15.916Z,1683.2
2022-11-04T07:12:16.084Z,1651.2
2022-11-04T07:13:16.221Z,1706.24
2022-11-04T07:14:16.364Z,1790.72
2022-11-04T07:15:16.523Z,1909.76
2022-11-04T07:16:16.666Z,2001.92
2022-11-04T07:17:16.790Z,2074.88
2022-11-04T07:18:16.948Z,2071.04
2022-11-04T07:19:17.077Z,1981.44
2022-11-04T07:20:17.246Z,1902.08
2022-11-04T07:21:17.383Z,1834.24
2022-11-04T07:22:17.546Z,1721.6
2022-11-04T07:23:17.701Z,1589.76
2022-11-04T07:24:17.840Z,1341.44
2022-11-04T07:25:17.995Z,1178.24
2022-11-04T07:26:18.145Z,1115.52
2022-11-04T07:27:18.300Z,1108.48
2022-11-04T07:28:18.420Z,1154.56
2022-11-04T07:29:18.548Z,1234.56
2022-11-04T07:30:18.651Z,1282.56
2022-11-04T07:31:18.791Z,1266.56
2022-11-04T07:32:18.950Z,1227.52
2022-11-04T07:33:19.108Z,1215.36
2022-11-04T07:34:19.267Z,1246.08
2022-11-04T07:35:19.422Z,1265.28
2022-11-04T07:36:19.572Z,1289.6
2022-11-04T07:37:19.710Z,1416.96
2022-11-04T07:38:19.859Z,1559.04
2022-11-04T07:39:20.020Z,1667.84
2022-11-04T07:40:20.166Z,1706.24
2022-11-04T07:41:20.327Z,1660.16
2022-11-04T07:42:20.466Z,1571.84
2022-11-04T07:43:20.619Z,1441.28
2022-11-04T07:44:20.766Z,1262.08
2022-11-04T07:45:20.893Z,1091.2
2022-11-04T07:46:21.017Z,968.32
2022-11-04T07:47:21.179Z,895.36
2022-11-04T07:48:21.339Z,903.04
2022-11-04T07:49:21.434Z,998.4
2022-11-04T07:50:21.618Z,1195.52
2022-11-04T07:51:21.737Z,1405.44
2022-11-04T07:52:21.894Z,1603.84
2022-11-04T07:53:22.063Z,1774.08
2022-11-04T07:54:22.212Z,2103.04
2022-11-04T07:55:22.355Z,2449.92
2022-11-04T07:56:22.498Z,2772.48
2022-11-04T07:57:22.598Z,2900.48
2022-11-04T07:58:22.755Z,3000.32
2022-11-04T07:59:22.897Z,3194.88
2022-11-04T08:00:23.062Z,3665.92
2022-11-04T08:01:23.301Z,4047.36
2022-11-04T08:02:26.662Z,4454.4
2022-11-04T08:03:23.537Z,4528.64
2022-11-04T08:04:23.666Z,4449.28
2022-11-04T08:05:23.812Z,4305.92
2022-11-04T08:06:23.976Z,4131.84
2022-11-04T08:07:24.113Z,4001.28
2022-11-04T08:08:24.264Z,3886.08
2022-11-04T08:09:24.488Z,3837.44
2022-11-04T08:10:24.624Z,3747.84
2022-11-04T08:11:24.734Z,3668.48
2022-11-04T08:12:24.878Z,3481.6
2022-11-04T08:13:25.002Z,3328
2022-11-04T08:14:25.136Z,3112.96
2022-11-04T08:15:25.285Z,2877.44
2022-11-04T08:16:28.770Z,2746.88
2022-11-04T08:17:25.572Z,2728.96
2022-11-04T08:18:25.681Z,2821.12
2022-11-04T08:19:25.844Z,2972.16
2022-11-04T08:20:25.993Z,3041.28
2022-11-04T08:21:26.146Z,2741.76
2022-11-04T08:22:30.260Z,2570.24
2022-11-04T08:23:26.449Z,2618.88
2022-11-04T08:24:26.599Z,2795.52
2022-11-04T08:25:26.753Z,2800.64
2022-11-04T08:26:26.876Z,2677.76
2022-11-04T08:27:26.997Z,2654.72
2022-11-04T08:28:27.160Z,2439.68
2022-11-04T08:29:27.312Z,2082.56
2022-11-04T08:30:27.457Z,1835.52
2022-11-04T08:31:27.594Z,1719.04
2022-11-04T08:32:27.740Z,1934.08
2022-11-04T08:33:27.856Z,2245.12
2022-11-04T08:34:28.008Z,2245.12
2022-11-04T08:35:28.127Z,2926.08
2022-11-04T08:36:28.223Z,2854.4
2022-11-04T08:37:28.364Z,2672.64
2022-11-04T08:38:28.517Z,2910.72
2022-11-04T08:39:28.696Z,3381.76
2022-11-04T08:40:28.845Z,3156.48
2022-11-04T08:41:28.928Z,3220.48
2022-11-04T08:42:29.090Z,3507.2
2022-11-04T08:43:29.223Z,3200
2022-11-04T08:44:29.366Z,2551.04
2022-11-04T08:45:33.479Z,2027.52
2022-11-04T08:46:29.573Z,1834.24
2022-11-04T08:47:29.728Z,2076.16
2022-11-04T08:48:29.875Z,2821.12
2022-11-04T08:49:30.037Z,3092.48
2022-11-04T08:50:30.140Z,3356.16
2022-11-04T08:51:30.285Z,4421.12
2022-11-04T08:52:30.436Z,5022.72
2022-11-04T08:53:30.581Z,5268.48
2022-11-04T08:54:30.694Z,5073.92
2022-11-04T08:55:30.849Z,4943.36
2022-11-04T08:56:31.001Z,4595.2
2022-11-04T08:57:31.145Z,4436.48
2022-11-04T08:58:31.292Z,4234.24
2022-11-04T08:59:31.448Z,4587.52
2022-11-04T09:00:31.615Z,4454.4
2022-11-04T09:01:35.569Z,4106.24
2022-11-04T09:02:31.856Z,4119.04
2022-11-04T09:03:32.067Z,4049.92
2022-11-04T09:04:32.116Z,4032
2022-11-04T09:05:32.282Z,3860.48
2022-11-04T09:06:32.408Z,3540.48
2022-11-04T09:07:32.568Z,3368.96
2022-11-04T09:08:32.665Z,3228.16
2022-11-04T09:09:32.805Z,3005.44
2022-11-04T09:10:32.973Z,2877.44
2022-11-04T09:11:33.118Z,2805.76
2022-11-04T09:12:33.272Z,2708.48
2022-11-04T09:13:39.170Z,2659.84
2022-11-04T09:14:33.531Z,2644.48
2022-11-04T09:15:33.674Z,2641.92
2022-11-04T09:16:33.812Z,2688
2022-11-04T09:17:33.927Z,2816
2022-11-04T09:18:34.063Z,2846.72
2022-11-04T09:19:34.215Z,2739.2
2022-11-04T09:20:34.314Z,2670.08
2022-11-04T09:21:34.467Z,2615.04
2022-11-04T09:22:34.643Z,2553.6
2022-11-04T09:23:34.818Z,2493.44
2022-11-04T09:24:34.885Z,2525.44
2022-11-04T09:25:35.051Z,2634.24
2022-11-04T09:26:35.194Z,2716.16
2022-11-04T09:27:35.345Z,2780.16
2022-11-04T09:28:35.496Z,2787.84
2022-11-04T09:29:35.600Z,2775.04
2022-11-04T09:30:35.700Z,2744.32
2022-11-04T09:31:35.887Z,2690.56
2022-11-04T09:32:36.012Z,2649.6
2022-11-04T09:33:36.176Z,2647.04
2022-11-04T09:34:36.325Z,2667.52
2022-11-04T09:35:36.470Z,2677.76
2022-11-04T09:36:36.565Z,2639.36
2022-11-04T09:37:36.668Z,2624
2022-11-04T09:38:36.817Z,2631.68
2022-11-04T09:39:36.967Z,2670.08
2022-11-04T09:40:37.128Z,2731.52
2022-11-04T09:41:37.265Z,2777.6
2022-11-04T09:42:37.429Z,2826.24
2022-11-04T09:43:37.568Z,2836.48
2022-11-04T09:44:53.604Z,2813.44
2022-11-04T09:45:37.871Z,2775.04
2022-11-04T09:46:37.981Z,2749.44
2022-11-04T09:47:38.134Z,2749.44
2022-11-04T09:48:38.301Z,2723.84
2022-11-04T09:49:38.442Z,2682.88
2022-11-04T09:50:38.578Z,2611.2
2022-11-04T09:51:53.618Z,2544.64
2022-11-04T09:52:38.902Z,2438.4
2022-11-04T09:53:39.090Z,2362.88
2022-11-04T09:54:41.870Z,2305.28
2022-11-04T09:55:39.347Z,2298.88
2022-11-04T09:56:39.491Z,2319.36
2022-11-04T09:57:39.766Z,2352.64
2022-11-04T09:58:39.812Z,2396.16
2022-11-04T09:59:39.976Z,2432
2022-11-04T10:00:40.152Z,2451.2
2022-11-04T10:01:40.337Z,2440.96
2022-11-04T10:02:40.507Z,2425.6
2022-11-04T10:03:40.459Z,2400
2022-11-04T10:04:40.608Z,2380.8
2022-11-04T10:05:40.800Z,2355.2
2022-11-04T10:06:40.912Z,2334.72
2022-11-04T10:07:41.031Z,2301.44
2022-11-04T10:08:41.175Z,2289.92
2022-11-04T10:09:41.323Z,2277.12
2022-11-04T10:10:41.460Z,2268.16
2022-11-04T10:11:41.573Z,2237.44
2022-11-04T10:12:41.748Z,2191.36
2022-11-04T10:13:41.882Z,2155.52
2022-11-04T10:14:42.020Z,2165.76
2022-11-04T10:15:42.168Z,2254.08
2022-11-04T10:16:42.335Z,2442.24
2022-11-04T10:17:42.470Z,2561.28
2022-11-04T10:18:42.573Z,2612.48
2022-11-04T10:19:42.732Z,2575.36
2022-11-04T10:20:43.887Z,2496
2022-11-04T10:21:43.009Z,2425.6
2022-11-04T10:22:43.150Z,2338.56
2022-11-04T10:23:43.292Z,2289.92
2022-11-04T10:24:43.392Z,2291.2
2022-11-04T10:25:43.552Z,2333.44
2022-11-04T10:26:43.689Z,2373.12
2022-11-04T10:27:43.823Z,2385.92
2022-11-04T10:28:43.946Z,2369.28
2022-11-04T10:29:44.109Z,2347.52
2022-11-04T10:30:44.245Z,2357.76
2022-11-04T10:31:44.417Z,2376.96
2022-11-04T10:32:44.555Z,2408.96
2022-11-04T10:33:44.711Z,2430.72
2022-11-04T10:34:44.865Z,2487.04
2022-11-04T10:35:45.022Z,2570.24
2022-11-04T10:36:45.122Z,2685.44
2022-11-04T10:37:45.263Z,2752
2022-11-04T10:38:45.416Z,2769.92
2022-11-04T10:39:45.566Z,2731.52
2022-11-04T10:40:45.726Z,2662.4
2022-11-04T10:41:45.907Z,2568.96
2022-11-04T10:42:45.968Z,2511.36
2022-11-04T10:43:46.124Z,2508.8
2022-11-04T10:44:46.284Z,2553.6
2022-11-04T10:45:46.423Z,2584.32
2022-11-04T10:46:46.575Z,2615.04
2022-11-04T10:47:46.771Z,2636.8
2022-11-04T10:48:46.894Z,2657.28
2022-11-04T10:50:07.083Z,2652.16
2022-11-04T10:50:47.141Z,2634.24
2022-11-04T10:51:47.293Z,2607.36
2022-11-04T10:52:47.498Z,2586.88
2022-11-04T10:53:47.587Z,2572.8
2022-11-04T10:54:47.709Z,2576.64
2022-11-04T10:55:47.866Z,2575.36
2022-11-04T10:56:48.038Z,2574.08
2022-11-04T10:57:48.111Z,2598.4
2022-11-04T10:58:48.242Z,2652.16
2022-11-04T10:59:48.412Z,2734.08
2022-11-04T11:00:48.582Z,2800.64
2022-11-04T11:01:48.710Z,2841.6
2022-11-04T11:02:48.805Z,2854.4
2022-11-04T11:03:48.909Z,2856.96
2022-11-04T11:04:49.057Z,2856.96
2022-11-04T11:05:49.196Z,2882.56
2022-11-04T11:06:49.322Z,2946.56
2022-11-04T11:07:49.471Z,2974.72
2022-11-04T11:08:49.623Z,2995.2
2022-11-04T11:09:53.470Z,3187.2
2022-11-04T11:10:49.936Z,3297.28
2022-11-04T11:11:50.077Z,3415.04
2022-11-04T11:12:51.583Z,3499.52
2022-11-04T11:13:50.377Z,3678.72
2022-11-04T11:14:50.464Z,3791.36
2022-11-04T11:15:50.614Z,3991.04
2022-11-04T11:16:50.736Z,4221.44
2022-11-04T11:17:50.904Z,4695.04
2022-11-04T11:18:51.037Z,5140.48
2022-11-04T11:19:51.200Z,5703.68
2022-11-04T11:20:51.282Z,6113.28
2022-11-04T11:21:51.435Z,6364.16
2022-11-04T11:22:51.646Z,6558.72
2022-11-04T11:23:51.740Z,6604.8
2022-11-04T11:24:51.893Z,6615.04
2022-11-04T11:25:52.046Z,6558.72
2022-11-04T11:26:52.182Z,6420.48
2022-11-04T11:27:52.346Z,6200.32
2022-11-04T11:28:57.552Z,6051.84
2022-11-04T11:29:52.658Z,5944.32
2022-11-04T11:30:52.791Z,5903.36
2022-11-04T11:31:52.914Z,5888
2022-11-04T11:32:53.069Z,5831.68
2022-11-04T11:33:53.166Z,5847.04
2022-11-04T11:34:53.310Z,5934.08
2022-11-04T11:35:53.464Z,6067.2
2022-11-04T11:36:53.597Z,6287.36
2022-11-04T11:37:53.728Z,6461.44
2022-11-04T11:38:53.859Z,6656
2022-11-04T11:39:53.964Z,6814.72
2022-11-04T11:41:18.605Z,6963.2
2022-11-04T11:41:54.276Z,7055.36
2022-11-04T11:42:54.423Z,7157.76
2022-11-04T11:43:54.616Z,7203.84
2022-11-04T11:44:54.737Z,7234.56
2022-11-04T11:45:54.865Z,7229.44
2022-11-04T11:46:55.023Z,7234.56
2022-11-04T11:47:55.179Z,7239.68
2022-11-04T11:48:55.346Z,7255.04
2022-11-04T11:49:55.488Z,7316.48
2022-11-04T11:50:55.634Z,7485.44
2022-11-04T11:51:55.783Z,7741.44
2022-11-04T11:52:55.947Z,8002.56
2022-11-04T11:53:56.095Z,8345.6
2022-11-04T11:54:56.257Z,8524.8
2022-11-04T11:55:56.385Z,8606.72
2022-11-04T11:57:12.946Z,8432.64
2022-11-04T12:01:03.403Z,6620.16
2022-11-04T12:01:57.380Z,6359.04
2022-11-04T12:02:57.910Z,6220.8
2022-11-04T12:06:19.246Z,5468.16
2022-11-04T12:09:59.269Z,5457.92
2022-11-04T12:10:58.510Z,5539.84
2022-11-04T12:11:58.670Z,5672.96
2022-11-04T12:12:58.727Z,6026.24
2022-11-04T12:13:58.869Z,6507.52
2022-11-04T12:14:59.025Z,7111.68
2022-11-04T12:15:59.118Z,7628.8
2022-11-04T12:16:59.276Z,8320
2022-11-04T12:17:59.423Z,8755.2
2022-11-04T12:18:59.534Z,9000.96
2022-11-04T12:19:59.683Z,9006.08
2022-11-04T12:20:59.833Z,9000.96
2022-11-04T12:21:59.938Z,9108.479
2022-11-04T12:23:00.088Z,9272.319
2022-11-04T12:24:00.232Z,9466.88
2022-11-04T12:25:00.353Z,9472
2022-11-04T12:26:00.491Z,9246.72
2022-11-04T12:27:00.604Z,8842.24
2022-11-04T12:28:00.751Z,8355.84
2022-11-04T12:29:00.901Z,8094.72
2022-11-04T12:30:01.068Z,7767.04
2022-11-04T12:31:01.143Z,7490.56
2022-11-04T12:32:01.688Z,7260.16
2022-11-04T12:33:01.829Z,6917.12
2022-11-04T12:34:01.603Z,6691.84
2022-11-04T12:35:02.286Z,6748.16
2022-11-04T12:36:01.861Z,6886.4
2022-11-04T12:37:01.978Z,6599.68
2022-11-04T12:38:02.110Z,6128.64
2022-11-04T12:39:02.276Z,5749.76
2022-11-04T12:40:02.415Z,5519.36
2022-11-04T12:41:28.023Z,5204.48
2022-11-04T12:42:20.440Z,5148.16
2022-11-04T12:43:02.867Z,5319.68
2022-11-04T12:44:03.021Z,5288.96
2022-11-04T12:45:03.179Z,5099.52
2022-11-04T12:46:03.313Z,4843.52
2022-11-04T12:47:03.486Z,4741.12
2022-11-04T12:48:03.628Z,4733.44
2022-11-04T12:49:07.160Z,4887.04
2022-11-04T12:50:03.885Z,5066.24
2022-11-04T12:51:04.041Z,5427.2
2022-11-04T12:52:04.185Z,5811.2
2022-11-04T12:53:04.290Z,6123.52
2022-11-04T12:54:04.444Z,6205.44
2022-11-04T12:55:04.602Z,6369.28